createdAt,value
2018-01-26T05:00:29.789Z,7.48
2018-01-26T05:00:55.314Z,7.61
2018-01-26T05:01:20.767Z,7.58
2018-01-26T05:01:46.223Z,7.54
2018-01-26T05:02:11.701Z,7.5
2018-01-26T05:02:37.242Z,7.56
2018-01-26T05:03:02.659Z,7.5
2018-01-26T05:03:28.132Z,7.5
2018-01-26T05:03:53.606Z,7.6
2018-01-26T05:04:19.080Z,7.51
2018-01-26T05:04:44.583Z,7.63
2018-01-26T05:05:10.070Z,7.51
2018-01-26T05:05:35.540Z,7.63
2018-01-26T05:06:01.058Z,7.53
2018-01-26T05:06:26.551Z,7.63
2018-01-26T05:06:52.100Z,7.5
2018-01-26T05:07:17.607Z,7.54
2018-01-26T05:07:43.093Z,7.48
2018-01-26T05:08:08.573Z,7.6
2018-01-26T05:08:34.074Z,7.56
2018-01-26T05:08:59.600Z,7.53
2018-01-26T05:09:25.131Z,7.6
2018-01-26T05:09:50.556Z,7.54
2018-01-26T05:10:16.115Z,7.57
2018-01-26T05:10:41.607Z,7.51
2018-01-26T05:11:07.087Z,7.56
2018-01-26T05:11:32.596Z,7.6
2018-01-26T05:11:58.090Z,7.58
2018-01-26T05:12:23.584Z,7.58
2018-01-26T05:12:49.109Z,7.63
2018-01-26T05:13:14.565Z,7.57
2018-01-26T05:13:40.026Z,7.56
2018-01-26T05:14:05.514Z,7.57
2018-01-26T05:14:30.966Z,7.58
2018-01-26T05:15:19.358Z,7.56
2018-01-26T05:15:44.766Z,7.63
2018-01-26T05:16:10.231Z,7.56
2018-01-26T05:16:35.706Z,7.53
2018-01-26T05:17:01.136Z,7.51
2018-01-26T05:18:09.801Z,7.6
2018-01-26T05:18:35.302Z,7.61
2018-01-26T05:19:00.738Z,7.56
2018-01-26T05:19:26.192Z,7.54
2018-01-26T05:19:51.807Z,7.53
2018-01-26T05:20:17.282Z,7.48
2018-01-26T05:20:42.783Z,7.47
2018-01-26T05:21:08.205Z,7.58
2018-01-26T05:21:33.695Z,7.57
2018-01-26T05:21:59.226Z,7.6
2018-01-26T05:22:24.723Z,7.58
2018-01-26T05:22:50.173Z,7.51
2018-01-26T05:23:15.661Z,7.6
2018-01-26T05:23:41.136Z,7.51
2018-01-26T05:24:06.602Z,7.63
2018-01-26T05:24:32.086Z,7.5
2018-01-26T05:24:57.654Z,7.5
2018-01-26T05:25:23.096Z,7.57
2018-01-26T05:25:48.572Z,7.51
2018-01-26T05:26:14.049Z,7.63
2018-01-26T05:26:39.479Z,7.6
2018-01-26T05:27:04.978Z,7.56
2018-01-26T05:28:03.459Z,7.58
2018-01-26T05:28:28.958Z,7.57
2018-01-26T05:28:54.426Z,7.6
2018-01-26T05:29:19.904Z,7.54
2018-01-26T05:29:45.392Z,7.58
2018-01-26T05:30:10.864Z,7.58
2018-01-26T05:30:36.336Z,7.54
2018-01-26T05:31:01.823Z,7.58
2018-01-26T05:31:27.271Z,7.54
2018-01-26T05:31:52.735Z,7.56
2018-01-26T05:32:18.234Z,7.63
2018-01-26T05:32:43.757Z,7.63
2018-01-26T05:33:09.209Z,7.58
2018-01-26T05:33:34.683Z,7.54
2018-01-26T05:34:00.160Z,7.6
2018-01-26T05:34:25.632Z,7.61
2018-01-26T05:34:51.121Z,7.57
2018-01-26T05:35:16.603Z,7.67
2018-01-26T05:35:42.108Z,7.58
2018-01-26T05:36:07.608Z,7.54
2018-01-26T05:36:33.101Z,7.53
2018-01-26T05:36:58.552Z,7.56
2018-01-26T05:37:24.050Z,7.58
2018-01-26T05:37:49.592Z,7.61
2018-01-26T05:38:15.086Z,7.54
2018-01-26T05:38:40.587Z,7.7
2018-01-26T05:39:06.095Z,7.56
2018-01-26T05:39:31.547Z,7.54
2018-01-26T05:39:57.059Z,7.54
2018-01-26T05:40:22.566Z,7.67
2018-01-26T05:40:48.160Z,7.6
2018-01-26T05:41:13.598Z,7.56
2018-01-26T05:41:39.097Z,7.6
2018-01-26T05:42:04.551Z,7.54
2018-01-26T05:42:30.033Z,7.58
2018-01-26T05:42:55.562Z,7.66
2018-01-26T05:43:21.065Z,7.57
2018-01-26T05:43:46.547Z,7.58
2018-01-26T05:44:11.986Z,7.67
2018-01-26T05:44:37.449Z,7.58
2018-01-26T05:45:02.977Z,7.66
2018-01-26T05:45:28.523Z,7.6
2018-01-26T05:45:54.039Z,7.57
2018-01-26T05:46:19.510Z,7.58
2018-01-26T05:46:44.958Z,7.54
2018-01-26T05:47:10.476Z,7.66
2018-01-26T05:48:03.933Z,7.58
2018-01-26T05:48:29.489Z,7.63
2018-01-26T05:48:54.943Z,7.56
2018-01-26T05:49:20.447Z,7.7
2018-01-26T05:49:45.888Z,7.67
2018-01-26T05:50:11.382Z,7.7
2018-01-26T05:50:36.908Z,7.67
2018-01-26T05:51:02.388Z,7.7
2018-01-26T05:51:27.874Z,7.7
2018-01-26T05:51:53.354Z,7.63
2018-01-26T05:52:18.842Z,7.67
2018-01-26T05:52:44.368Z,7.67
2018-01-26T05:53:09.900Z,7.7
2018-01-26T05:53:35.483Z,7.58
2018-01-26T05:54:00.937Z,7.66
2018-01-26T05:55:09.646Z,7.66
2018-01-26T05:55:35.174Z,7.61
2018-01-26T05:56:00.672Z,7.67
2018-01-26T05:56:26.118Z,7.58
2018-01-26T05:56:51.636Z,7.67
2018-01-26T05:57:17.148Z,7.57
2018-01-26T05:57:42.636Z,7.6
2018-01-26T05:58:08.143Z,7.69
2018-01-26T05:58:33.694Z,7.67
2018-01-26T05:58:59.156Z,7.66
2018-01-26T05:59:24.666Z,7.58
2018-01-26T05:59:50.158Z,7.7
2018-01-26T06:00:15.727Z,7.66
2018-01-26T06:00:41.212Z,7.67
2018-01-26T06:01:06.695Z,7.61
2018-01-26T06:01:32.158Z,7.61
2018-01-26T06:01:57.620Z,7.7
2018-01-26T06:02:23.425Z,7.58
2018-01-26T06:02:48.940Z,7.58
2018-01-26T06:03:14.425Z,7.66
2018-01-26T06:03:39.919Z,7.57
2018-01-26T06:04:05.346Z,7.7
2018-01-26T06:04:30.877Z,7.67
2018-01-26T06:04:56.436Z,7.63
2018-01-26T06:05:21.936Z,7.61
2018-01-26T06:05:47.404Z,7.5
2018-01-26T06:06:12.942Z,7.63
2018-01-26T06:06:38.674Z,7.58
2018-01-26T06:07:32.391Z,7.53
2018-01-26T06:07:57.815Z,7.54
2018-01-26T06:08:23.278Z,7.54
2018-01-26T06:08:48.719Z,7.61
2018-01-26T06:09:14.221Z,7.58
2018-01-26T06:09:39.741Z,7.58
2018-01-26T06:10:05.180Z,7.6
2018-01-26T06:10:30.662Z,7.61
2018-01-26T06:10:56.164Z,7.53
2018-01-26T06:11:21.589Z,7.58
2018-01-26T06:11:47.151Z,7.61
2018-01-26T06:12:12.630Z,7.54
2018-01-26T06:12:38.107Z,7.58
2018-01-26T06:13:03.561Z,7.58
2018-01-26T06:13:29.042Z,7.61
2018-01-26T06:14:17.333Z,7.56
2018-01-26T06:14:42.828Z,7.57
2018-01-26T06:15:08.307Z,7.58
2018-01-26T06:15:33.800Z,7.57
2018-01-26T06:15:59.292Z,7.53
2018-01-26T06:16:24.809Z,7.63
2018-01-26T06:16:50.268Z,7.54
2018-01-26T06:17:15.724Z,7.56
2018-01-26T06:17:41.390Z,7.58
2018-01-26T06:18:06.810Z,7.7
2018-01-26T06:18:32.296Z,7.61
2018-01-26T06:18:57.741Z,7.7
2018-01-26T06:19:23.216Z,7.66
2018-01-26T06:19:48.712Z,7.58
2018-01-26T06:20:14.199Z,7.58
2018-01-26T06:20:39.650Z,7.56
2018-01-26T06:21:05.275Z,7.6
2018-01-26T06:21:30.637Z,7.69
2018-01-26T06:21:56.191Z,7.67
2018-01-26T06:22:59.894Z,7.73
2018-01-26T06:23:25.481Z,7.7
2018-01-26T06:23:50.955Z,7.69
2018-01-26T06:24:16.485Z,7.73
2018-01-26T06:24:42.109Z,7.56
2018-01-26T06:25:07.572Z,7.61
2018-01-26T06:25:33.078Z,7.69
2018-01-26T06:25:58.576Z,7.6
2018-01-26T06:26:23.987Z,7.6
2018-01-26T06:26:49.503Z,7.66
2018-01-26T06:27:14.976Z,7.58
2018-01-26T06:27:40.475Z,7.63
2018-01-26T06:28:05.958Z,7.66
2018-01-26T06:28:31.609Z,7.63
2018-01-26T06:29:25.055Z,7.67
2018-01-26T06:29:50.506Z,7.67
2018-01-26T06:30:16.009Z,7.67
2018-01-26T06:30:41.506Z,7.7
2018-01-26T06:31:06.998Z,7.72
2018-01-26T06:31:32.487Z,7.75
2018-01-26T06:31:58.106Z,7.72
2018-01-26T06:32:23.608Z,7.63
2018-01-26T06:32:49.087Z,7.58
2018-01-26T06:33:14.534Z,7.69
2018-01-26T06:33:40.003Z,7.75
2018-01-26T06:34:05.490Z,7.7
2018-01-26T06:34:30.977Z,7.66
2018-01-26T06:34:56.428Z,7.67
2018-01-26T06:35:54.915Z,7.72
2018-01-26T06:36:20.417Z,7.63
2018-01-26T06:36:45.901Z,7.58
2018-01-26T06:37:39.312Z,7.61
2018-01-26T06:38:04.830Z,7.66
2018-01-26T06:38:30.301Z,7.69
2018-01-26T06:38:55.797Z,7.69
2018-01-26T06:39:21.231Z,7.66
2018-01-26T06:39:46.691Z,7.73
2018-01-26T06:40:12.185Z,7.7
2018-01-26T06:40:37.859Z,7.73
2018-01-26T06:41:03.311Z,7.69
2018-01-26T06:41:28.866Z,7.72
2018-01-26T06:41:54.389Z,7.8
2018-01-26T06:42:19.890Z,7.7
2018-01-26T06:42:45.373Z,7.69
2018-01-26T06:43:10.870Z,7.7
2018-01-26T06:43:59.191Z,7.73
2018-01-26T06:44:24.678Z,7.67
2018-01-26T06:44:50.216Z,7.69
2018-01-26T06:45:59.644Z,7.72
2018-01-26T06:46:25.132Z,7.69
2018-01-26T06:46:50.632Z,7.7
2018-01-26T06:47:16.090Z,7.72
2018-01-26T06:47:41.584Z,7.7
2018-01-26T06:48:07.095Z,7.73
2018-01-26T06:48:32.573Z,7.75
2018-01-26T06:48:58.026Z,7.72
2018-01-26T06:49:23.502Z,7.63
2018-01-26T06:49:48.932Z,7.76
2018-01-26T06:50:15.476Z,7.63
2018-01-26T06:50:41.018Z,7.75
2018-01-26T06:51:06.554Z,7.67
2018-01-26T06:52:05.083Z,7.73
2018-01-26T06:52:30.589Z,7.67
2018-01-26T06:52:56.044Z,7.73
2018-01-26T06:53:21.499Z,7.7
2018-01-26T06:53:47.009Z,7.72
2018-01-26T06:54:12.492Z,7.66
2018-01-26T06:54:38.049Z,7.69
2018-01-26T06:55:03.549Z,7.67
2018-01-26T06:55:29.022Z,7.73
2018-01-26T06:55:54.529Z,7.67
2018-01-26T06:56:19.978Z,7.75
2018-01-26T06:56:45.447Z,7.61
2018-01-26T06:57:10.936Z,7.7
2018-01-26T06:57:36.388Z,7.76
2018-01-26T06:58:45.186Z,7.6
2018-01-26T06:59:10.689Z,7.7
2018-01-26T06:59:36.168Z,7.73
2018-01-26T07:00:01.647Z,7.61
2018-01-26T07:00:27.178Z,7.73
2018-01-26T07:00:52.640Z,7.69
2018-01-26T07:01:56.216Z,7.7
2018-01-26T07:02:21.689Z,7.73
2018-01-26T07:02:47.187Z,7.57
2018-01-26T07:03:12.657Z,7.72
2018-01-26T07:03:38.112Z,7.67
2018-01-26T07:04:03.644Z,7.6
2018-01-26T07:04:29.106Z,7.76
2018-01-26T07:04:54.535Z,7.66
2018-01-26T07:05:19.970Z,7.7
2018-01-26T07:05:45.483Z,7.72
2018-01-26T07:06:10.941Z,7.58
2018-01-26T07:06:36.429Z,7.63
2018-01-26T07:07:01.928Z,7.75
2018-01-26T07:07:27.442Z,7.73
2018-01-26T07:07:52.923Z,7.73
2018-01-26T07:08:18.401Z,7.67
2018-01-26T07:08:43.863Z,7.58
2018-01-26T07:09:09.341Z,7.66
2018-01-26T07:09:34.860Z,7.7
2018-01-26T07:10:00.370Z,7.75
2018-01-26T07:11:09.173Z,7.61
2018-01-26T07:11:34.672Z,7.73
2018-01-26T07:12:00.178Z,7.57
2018-01-26T07:12:25.624Z,7.6
2018-01-26T07:12:51.103Z,7.73
2018-01-26T07:13:16.562Z,7.7
2018-01-26T07:13:42.093Z,7.61
2018-01-26T07:14:07.649Z,7.75
2018-01-26T07:14:33.046Z,7.69
2018-01-26T07:14:58.504Z,7.63
2018-01-26T07:15:23.967Z,7.7
2018-01-26T07:15:49.480Z,7.72
2018-01-26T07:16:14.967Z,7.67
2018-01-26T07:16:40.485Z,7.56
2018-01-26T07:17:05.988Z,7.66
2018-01-26T07:17:54.319Z,7.58
2018-01-26T07:18:19.816Z,7.57
2018-01-26T07:18:45.274Z,7.67
2018-01-26T07:19:10.771Z,7.56
2018-01-26T07:19:36.224Z,7.58
2018-01-26T07:20:01.767Z,7.66
2018-01-26T07:20:27.210Z,7.63
2018-01-26T07:20:52.679Z,7.6
2018-01-26T07:21:56.243Z,7.69
2018-01-26T07:22:21.741Z,7.61
2018-01-26T07:22:47.208Z,7.66
2018-01-26T07:23:12.663Z,7.51
2018-01-26T07:24:11.168Z,7.6
2018-01-26T07:24:36.654Z,7.63
2018-01-26T07:25:02.170Z,7.56
2018-01-26T07:25:27.621Z,7.67
2018-01-26T07:25:53.129Z,7.63
2018-01-26T07:26:18.582Z,7.58
2018-01-26T07:26:44.063Z,7.58
2018-01-26T07:27:09.553Z,7.63
2018-01-26T07:27:34.998Z,7.67
2018-01-26T07:28:00.505Z,7.58
2018-01-26T07:28:26.002Z,7.58
2018-01-26T07:28:51.507Z,7.5
2018-01-26T07:29:16.945Z,7.54
2018-01-26T07:29:42.416Z,7.57
2018-01-26T07:30:07.880Z,7.72
2018-01-26T07:30:33.367Z,7.58
2018-01-26T07:30:58.822Z,7.6
2018-01-26T07:31:24.375Z,7.61
2018-01-26T07:31:49.891Z,7.6
2018-01-26T07:32:15.388Z,7.53
2018-01-26T07:32:40.867Z,7.58
2018-01-26T07:33:06.367Z,7.61
2018-01-26T07:33:31.865Z,7.58
2018-01-26T07:33:57.358Z,7.57
2018-01-26T07:34:22.819Z,7.57
2018-01-26T07:34:48.285Z,7.58
2018-01-26T07:35:57.005Z,7.57
2018-01-26T07:36:22.500Z,7.58
2018-01-26T07:36:48.044Z,7.57
2018-01-26T07:37:13.518Z,7.6
2018-01-26T07:37:38.990Z,7.54
2018-01-26T07:38:04.497Z,7.6
2018-01-26T07:38:29.956Z,7.54
2018-01-26T07:38:55.397Z,7.6
2018-01-26T07:39:20.890Z,7.53
2018-01-26T07:39:46.428Z,7.66
2018-01-26T07:40:11.907Z,7.53
2018-01-26T07:40:37.394Z,7.53
2018-01-26T07:41:02.882Z,7.57
2018-01-26T07:41:28.357Z,7.57
2018-01-26T07:41:53.872Z,7.6
2018-01-26T07:42:19.374Z,7.54
2018-01-26T07:42:44.852Z,7.56
2018-01-26T07:43:10.340Z,7.57
2018-01-26T07:43:35.828Z,7.53
2018-01-26T07:44:01.287Z,7.56
2018-01-26T07:44:26.787Z,7.5
2018-01-26T07:44:52.330Z,7.6
2018-01-26T07:45:17.795Z,7.57
2018-01-26T07:45:43.312Z,7.6
2018-01-26T07:46:08.808Z,7.66
2018-01-26T07:47:12.401Z,7.63
2018-01-26T07:47:37.865Z,7.67
2018-01-26T07:48:03.321Z,7.7
2018-01-26T07:48:56.784Z,7.69
2018-01-26T07:49:22.270Z,7.57
2018-01-26T07:49:47.728Z,7.7
2018-01-26T07:50:41.130Z,7.6
2018-01-26T07:51:06.641Z,7.7
2018-01-26T07:51:32.131Z,7.61
2018-01-26T07:51:57.616Z,7.79
2018-01-26T07:52:23.056Z,7.7
2018-01-26T07:52:48.518Z,7.58
2018-01-26T07:53:14.039Z,7.61
2018-01-26T07:53:39.498Z,7.7
2018-01-26T07:54:04.998Z,7.67
2018-01-26T07:54:30.517Z,7.7
2018-01-26T07:54:56.013Z,7.77
2018-01-26T07:55:21.530Z,7.63
2018-01-26T07:55:47.004Z,7.69
2018-01-26T07:56:12.453Z,7.72
2018-01-26T07:56:37.923Z,7.69
2018-01-26T07:57:03.359Z,7.69
2018-01-26T07:57:28.868Z,7.76
2018-01-26T07:57:54.460Z,7.72
2018-01-26T07:58:52.995Z,7.67
2018-01-26T07:59:18.448Z,7.77
2018-01-26T07:59:43.931Z,7.7
2018-01-26T08:00:09.359Z,7.73
2018-01-26T08:00:34.883Z,7.73
2018-01-26T08:01:00.306Z,7.72
2018-01-26T08:01:25.786Z,7.7
2018-01-26T08:01:51.310Z,7.63
2018-01-26T08:02:16.774Z,7.72
2018-01-26T08:02:42.249Z,7.69
2018-01-26T08:03:07.735Z,7.7
2018-01-26T08:03:33.206Z,7.77
2018-01-26T08:03:58.722Z,7.73
2018-01-26T08:04:24.141Z,7.63
2018-01-26T08:04:49.614Z,7.76
2018-01-26T08:05:15.064Z,7.83
2018-01-26T08:06:04.547Z,7.7
2018-01-26T08:06:29.853Z,7.7
2018-01-26T08:06:55.357Z,7.73
2018-01-26T08:07:20.856Z,7.67
2018-01-26T08:07:46.273Z,7.76
2018-01-26T08:08:11.745Z,7.73
2018-01-26T08:08:37.244Z,7.7
2018-01-26T08:09:02.721Z,7.79
2018-01-26T08:09:28.193Z,7.75
2018-01-26T08:09:53.691Z,7.77
2018-01-26T08:10:19.189Z,7.88
2018-01-26T08:10:44.678Z,7.76
2018-01-26T08:11:10.141Z,7.77
2018-01-26T08:11:35.604Z,7.7
2018-01-26T08:12:01.099Z,7.77
2018-01-26T08:12:26.541Z,7.76
2018-01-26T08:12:51.998Z,7.75
2018-01-26T08:13:17.445Z,7.8
2018-01-26T08:13:42.925Z,7.77
2018-01-26T08:14:08.642Z,7.76
2018-01-26T08:14:34.124Z,7.77
2018-01-26T08:14:59.591Z,7.75
2018-01-26T08:15:25.061Z,7.73
2018-01-26T08:15:50.510Z,7.76
2018-01-26T08:16:15.992Z,7.8
2018-01-26T08:16:41.448Z,7.91
2018-01-26T08:17:06.900Z,7.83
2018-01-26T08:17:32.390Z,7.76
2018-01-26T08:17:57.865Z,7.82
2018-01-26T08:18:23.350Z,7.82
2018-01-26T08:19:27.949Z,7.87
2018-01-26T08:19:53.459Z,7.77
2018-01-26T08:20:18.954Z,7.88
2018-01-26T08:20:44.379Z,7.87
2018-01-26T08:21:09.876Z,7.88
2018-01-26T08:21:35.348Z,7.79
2018-01-26T08:22:00.850Z,7.77
2018-01-26T08:22:26.439Z,7.87
2018-01-26T08:22:51.875Z,7.85
2018-01-26T08:23:17.341Z,7.9
2018-01-26T08:23:42.836Z,7.9
2018-01-26T08:24:08.332Z,7.83
2018-01-26T08:24:33.756Z,7.75
2018-01-26T08:24:59.262Z,7.77
2018-01-26T08:25:24.726Z,7.77
2018-01-26T08:25:50.210Z,7.8
2018-01-26T08:26:43.655Z,7.82
2018-01-26T08:27:09.125Z,7.73
2018-01-26T08:27:34.564Z,7.8
2018-01-26T08:28:00.029Z,7.77
2018-01-26T08:29:08.676Z,7.8
2018-01-26T08:29:34.166Z,7.77
2018-01-26T08:29:59.660Z,7.85
2018-01-26T08:30:25.141Z,7.82
2018-01-26T08:30:50.635Z,7.85
2018-01-26T08:31:16.171Z,7.79
2018-01-26T08:31:41.640Z,7.83
2018-01-26T08:32:07.163Z,7.73
2018-01-26T08:32:32.710Z,7.82
2018-01-26T08:32:58.155Z,7.76
2018-01-26T08:33:23.601Z,7.83
2018-01-26T08:33:49.091Z,7.76
2018-01-26T08:34:14.574Z,7.85
2018-01-26T08:34:40.075Z,7.85
2018-01-26T08:35:05.536Z,7.9
2018-01-26T08:35:31.028Z,7.8
2018-01-26T08:35:56.504Z,7.83
2018-01-26T08:36:22.007Z,7.82
2018-01-26T08:36:47.523Z,7.73
2018-01-26T08:37:13.050Z,7.85
2018-01-26T08:37:38.513Z,7.91
2018-01-26T08:38:03.965Z,7.88
2018-01-26T08:38:29.427Z,7.88
2018-01-26T08:38:54.903Z,7.85
2018-01-26T08:39:20.373Z,7.88
2018-01-26T08:39:45.987Z,7.82
2018-01-26T08:40:11.431Z,7.79
2018-01-26T08:40:36.899Z,7.82
2018-01-26T08:41:02.401Z,7.85
2018-01-26T08:41:27.871Z,7.88
2018-01-26T08:41:53.344Z,7.87
2018-01-26T08:42:18.782Z,7.91
2018-01-26T08:42:44.261Z,7.87
2018-01-26T08:43:09.728Z,7.95
2018-01-26T08:43:35.201Z,7.87
2018-01-26T08:44:00.669Z,7.9
2018-01-26T08:44:26.173Z,7.82
2018-01-26T08:44:51.592Z,7.97
2018-01-26T08:45:17.067Z,7.85
2018-01-26T08:45:42.586Z,7.82
2018-01-26T08:46:08.030Z,7.88
2018-01-26T08:46:33.488Z,7.91
2018-01-26T08:46:59.004Z,7.97
2018-01-26T08:47:24.513Z,7.93
2018-01-26T08:47:49.954Z,7.94
2018-01-26T08:48:15.428Z,7.94
2018-01-26T08:48:40.906Z,7.93
2018-01-26T08:49:06.468Z,7.91
2018-01-26T08:49:31.872Z,8
2018-01-26T08:50:20.188Z,7.93
2018-01-26T08:50:45.679Z,7.91
2018-01-26T08:51:11.153Z,7.93
2018-01-26T08:51:36.661Z,8.01
2018-01-26T08:52:02.118Z,7.94
2018-01-26T08:52:27.652Z,7.95
2018-01-26T08:52:53.126Z,7.95
2018-01-26T08:53:18.622Z,7.94
2018-01-26T08:53:44.094Z,7.94
2018-01-26T08:54:09.557Z,7.91
2018-01-26T08:54:35.035Z,7.94
2018-01-26T08:55:00.528Z,7.94
2018-01-26T08:55:26.015Z,7.91
2018-01-26T08:55:51.515Z,8.03
2018-01-26T08:56:16.945Z,7.88
2018-01-26T08:56:42.410Z,7.93
2018-01-26T08:57:07.939Z,7.95
2018-01-26T08:57:33.419Z,7.94
2018-01-26T08:57:58.877Z,8
2018-01-26T08:58:24.335Z,7.98
2018-01-26T08:58:49.794Z,7.98
2018-01-26T08:59:15.290Z,8
2018-01-26T08:59:40.722Z,7.97
2018-01-26T09:00:49.616Z,7.95
2018-01-26T09:01:15.120Z,8.03
2018-01-26T09:01:40.601Z,8.06
2018-01-26T09:02:06.050Z,7.95
2018-01-26T09:02:31.534Z,7.94
2018-01-26T09:02:57.000Z,7.95
2018-01-26T09:03:22.496Z,8.05
2018-01-26T09:03:47.968Z,8.09
2018-01-26T09:04:13.457Z,8.09
2018-01-26T09:04:38.970Z,7.97
2018-01-26T09:05:04.407Z,8.03
2018-01-26T09:05:29.913Z,8.08
2018-01-26T09:05:55.379Z,8.01
2018-01-26T09:06:20.850Z,8.01
2018-01-26T09:06:46.341Z,7.98
2018-01-26T09:07:11.872Z,8.06
2018-01-26T09:07:37.346Z,8.01
2018-01-26T09:08:02.869Z,8
2018-01-26T09:08:28.338Z,8.08
2018-01-26T09:08:53.846Z,8.01
2018-01-26T09:09:19.372Z,8.06
2018-01-26T09:09:44.859Z,8.06
2018-01-26T09:10:10.373Z,8.01
2018-01-26T09:10:35.842Z,8.1
2018-01-26T09:11:01.340Z,8.01
2018-01-26T09:11:26.831Z,7.98
2018-01-26T09:11:52.304Z,8.01
2018-01-26T09:12:17.805Z,8.06
2018-01-26T09:12:43.244Z,8.06
2018-01-26T09:13:08.719Z,7.93
2018-01-26T09:13:34.281Z,8.05
2018-01-26T09:14:42.936Z,8
2018-01-26T09:15:08.449Z,8
2018-01-26T09:15:33.904Z,8
2018-01-26T09:15:59.406Z,8.08
2018-01-26T09:16:24.993Z,8.01
2018-01-26T09:16:50.508Z,7.97
2018-01-26T09:17:16.018Z,8.05
2018-01-26T09:17:41.504Z,8.01
2018-01-26T09:18:07.009Z,7.98
2018-01-26T09:18:32.503Z,8.06
2018-01-26T09:18:58.005Z,7.95
2018-01-26T09:19:23.512Z,8.06
2018-01-26T09:19:48.995Z,7.98
2018-01-26T09:20:14.462Z,8.06
2018-01-26T09:20:39.992Z,7.97
2018-01-26T09:21:05.539Z,7.95
2018-01-26T09:21:31.035Z,7.98
2018-01-26T09:21:56.444Z,7.95
2018-01-26T09:22:21.956Z,7.98
2018-01-26T09:22:47.589Z,7.97
2018-01-26T09:23:13.129Z,7.94
2018-01-26T09:23:38.695Z,7.95
2018-01-26T09:24:27.033Z,7.94
2018-01-26T09:24:52.481Z,7.95
2018-01-26T09:25:18.007Z,7.98
2018-01-26T09:25:43.467Z,7.98
2018-01-26T09:26:08.964Z,7.97
2018-01-26T09:26:34.455Z,7.98
2018-01-26T09:26:59.957Z,7.97
2018-01-26T09:27:25.437Z,7.97
2018-01-26T09:27:50.932Z,7.94
2018-01-26T09:28:16.474Z,7.94
2018-01-26T09:28:42.034Z,7.94
2018-01-26T09:29:07.520Z,7.97
2018-01-26T09:29:33.009Z,7.97
2018-01-26T09:29:58.500Z,8.01
2018-01-26T09:30:24.046Z,8
2018-01-26T09:30:49.535Z,7.98
2018-01-26T09:31:15.047Z,8.01
2018-01-26T09:31:40.583Z,7.98
2018-01-26T09:32:06.067Z,7.98
2018-01-26T09:33:09.704Z,8.12
2018-01-26T09:33:35.176Z,8
2018-01-26T09:34:00.655Z,8.08
2018-01-26T09:34:26.139Z,8.05
2018-01-26T09:34:51.673Z,8.09
2018-01-26T09:36:00.365Z,8.13
2018-01-26T09:36:25.867Z,8.09
2018-01-26T09:36:51.369Z,8.18
2018-01-26T09:37:17.188Z,8.16
2018-01-26T09:37:42.672Z,8.13
2018-01-26T09:38:08.133Z,8.2
2018-01-26T09:38:33.607Z,8.19
2018-01-26T09:38:59.071Z,8.19
2018-01-26T09:39:24.535Z,8.27
2018-01-26T09:40:18.547Z,8.23
2018-01-26T09:40:44.259Z,8.27
2018-01-26T09:41:09.722Z,8.24
2018-01-26T09:41:35.262Z,8.26
2018-01-26T09:42:00.755Z,8.24
2018-01-26T09:42:26.236Z,8.3
2018-01-26T09:42:51.794Z,8.24
2018-01-26T09:43:17.280Z,8.23
2018-01-26T09:44:20.974Z,8.34
2018-01-26T09:44:46.451Z,8.34
2018-01-26T09:45:11.955Z,8.33
2018-01-26T09:45:37.430Z,8.34
2018-01-26T09:46:02.948Z,8.31
2018-01-26T09:46:28.450Z,8.41
2018-01-26T09:46:53.995Z,8.33
2018-01-26T09:47:57.632Z,8.33
2018-01-26T09:48:23.130Z,8.42
2018-01-26T09:49:16.580Z,8.38
2018-01-26T09:49:42.066Z,8.36
2018-01-26T09:50:07.557Z,8.37
2018-01-26T09:50:33.033Z,8.42
2018-01-26T09:50:58.470Z,8.37
2018-01-26T09:51:24.040Z,8.44
2018-01-26T09:51:49.593Z,8.44
2018-01-26T09:52:15.059Z,8.42
2018-01-26T09:52:40.516Z,8.49
2018-01-26T09:53:06.034Z,8.44
2018-01-26T09:54:09.652Z,8.52
2018-01-26T09:54:35.108Z,8.48
2018-01-26T09:55:00.566Z,8.38
2018-01-26T09:56:04.176Z,8.51
2018-01-26T09:56:29.645Z,8.46
2018-01-26T09:56:55.123Z,8.48
2018-01-26T09:57:20.585Z,8.45
2018-01-26T09:57:46.078Z,8.41
2018-01-26T09:58:11.532Z,8.48
2018-01-26T09:58:37.041Z,8.52
2018-01-26T09:59:02.519Z,8.45
2018-01-26T10:00:06.183Z,8.53
2018-01-26T10:00:31.752Z,8.56
2018-01-26T10:00:57.146Z,8.56
2018-01-26T10:02:05.846Z,8.56
2018-01-26T10:02:31.359Z,8.49
2018-01-26T10:02:56.807Z,8.51
2018-01-26T10:03:22.329Z,8.6
2018-01-26T10:03:47.805Z,8.52
2018-01-26T10:04:13.284Z,8.51
2018-01-26T10:04:38.802Z,8.56
2018-01-26T10:05:04.308Z,8.53
2018-01-26T10:05:29.753Z,8.55
2018-01-26T10:05:55.280Z,8.55
2018-01-26T10:06:20.729Z,8.55
2018-01-26T10:06:46.236Z,8.6
2018-01-26T10:07:11.683Z,8.55
2018-01-26T10:07:37.157Z,8.55
2018-01-26T10:08:02.630Z,8.6
2018-01-26T10:08:28.120Z,8.49
2018-01-26T10:08:53.604Z,8.66
2018-01-26T10:09:19.104Z,8.61
2018-01-26T10:09:44.594Z,8.63
2018-01-26T10:10:10.091Z,8.64
2018-01-26T10:10:35.556Z,8.63
2018-01-26T10:11:01.038Z,8.52
2018-01-26T10:11:26.504Z,8.56
2018-01-26T10:11:51.989Z,8.61
2018-01-26T10:12:17.543Z,8.67
2018-01-26T10:13:26.217Z,8.69
2018-01-26T10:13:51.724Z,8.63
2018-01-26T10:14:17.235Z,8.64
2018-01-26T10:14:42.722Z,8.64
2018-01-26T10:15:08.157Z,8.63
2018-01-26T10:15:33.661Z,8.61
2018-01-26T10:15:59.144Z,8.6
2018-01-26T10:16:24.605Z,8.64
2018-01-26T10:16:50.085Z,8.63
2018-01-26T10:17:15.583Z,8.66
2018-01-26T10:17:41.060Z,8.64
2018-01-26T10:18:06.549Z,8.73
2018-01-26T10:18:32.049Z,8.67
2018-01-26T10:18:57.500Z,8.66
2018-01-26T10:19:22.964Z,8.63
2018-01-26T10:19:48.524Z,8.66
2018-01-26T10:20:14.063Z,8.66
2018-01-26T10:20:39.506Z,8.64
2018-01-26T10:21:04.996Z,8.69
2018-01-26T10:21:30.543Z,8.58
2018-01-26T10:21:56.008Z,8.7
2018-01-26T10:22:21.456Z,8.74
2018-01-26T10:22:46.949Z,8.64
2018-01-26T10:23:12.438Z,8.76
2018-01-26T10:23:37.943Z,8.78
2018-01-26T10:24:03.434Z,8.73
2018-01-26T10:24:28.934Z,8.74
2018-01-26T10:24:54.436Z,8.76
2018-01-26T10:25:20.035Z,8.78
2018-01-26T10:25:45.570Z,8.74
2018-01-26T10:26:11.117Z,8.73
2018-01-26T10:26:36.585Z,8.76
2018-01-26T10:27:02.150Z,8.76
2018-01-26T10:27:27.569Z,8.82
2018-01-26T10:28:31.184Z,8.76
2018-01-26T10:28:56.654Z,8.87
2018-01-26T10:29:22.183Z,8.81
2018-01-26T10:29:47.716Z,8.84
2018-01-26T10:30:13.176Z,8.79
2018-01-26T10:30:38.682Z,8.84
2018-01-26T10:31:04.174Z,8.81
2018-01-26T10:31:29.693Z,8.87
2018-01-26T10:31:55.229Z,8.88
2018-01-26T10:32:20.672Z,8.87
2018-01-26T10:32:46.143Z,8.89
2018-01-26T10:33:11.627Z,8.92
2018-01-26T10:33:37.099Z,8.82
2018-01-26T10:34:02.585Z,8.91
2018-01-26T10:34:28.072Z,8.92
2018-01-26T10:34:53.546Z,8.87
2018-01-26T10:35:19.056Z,8.91
2018-01-26T10:35:44.528Z,8.87
2018-01-26T10:36:32.847Z,8.87
2018-01-26T10:36:58.340Z,8.87
2018-01-26T10:38:07.130Z,8.94
2018-01-26T10:38:32.563Z,8.88
2018-01-26T10:38:58.077Z,8.87
2018-01-26T10:39:23.551Z,8.91
2018-01-26T10:39:49.044Z,8.87
2018-01-26T10:40:14.537Z,8.89
2018-01-26T10:40:40.020Z,8.97
2018-01-26T10:41:05.487Z,8.91
2018-01-26T10:41:30.988Z,8.95
2018-01-26T10:41:56.481Z,8.91
2018-01-26T10:42:21.992Z,8.97
2018-01-26T10:42:47.506Z,9.03
2018-01-26T10:43:12.971Z,8.95
2018-01-26T10:43:38.447Z,8.97
2018-01-26T10:44:03.931Z,8.89
2018-01-26T10:44:29.459Z,8.95
2018-01-26T10:44:54.899Z,8.94
2018-01-26T10:45:20.389Z,9.02
2018-01-26T10:45:45.864Z,8.97
2018-01-26T10:46:11.346Z,8.91
2018-01-26T10:46:36.800Z,8.92
2018-01-26T10:47:02.301Z,8.99
2018-01-26T10:47:27.826Z,8.95
2018-01-26T10:47:53.234Z,8.97
2018-01-26T10:49:01.950Z,8.94
2018-01-26T10:49:27.392Z,8.99
2018-01-26T10:49:52.866Z,9.04
2018-01-26T10:50:18.328Z,9.04
2018-01-26T10:50:43.815Z,8.99
2018-01-26T10:51:47.404Z,9.03
2018-01-26T10:52:12.902Z,9.03
2018-01-26T10:52:38.358Z,9.03
2018-01-26T10:53:03.843Z,9.06
2018-01-26T10:53:29.393Z,9.08
2018-01-26T10:53:54.847Z,9.08
2018-01-26T10:54:20.388Z,9.1
2018-01-26T10:54:45.902Z,9.06
2018-01-26T10:55:11.408Z,9.18
2018-01-26T10:55:36.890Z,9.14
2018-01-26T10:56:02.380Z,9.14
2018-01-26T10:56:27.887Z,9.18
2018-01-26T10:56:53.396Z,9.23
2018-01-26T10:57:18.850Z,9.18
2018-01-26T10:57:44.345Z,9.22
2018-01-26T10:58:09.832Z,9.22
2018-01-26T10:58:35.410Z,9.18
2018-01-26T10:59:00.909Z,9.21
2018-01-26T10:59:26.330Z,9.25
2018-01-26T10:59:51.829Z,9.26
2018-01-26T11:00:17.329Z,9.25
2018-01-26T11:00:42.829Z,9.23
2018-01-26T11:01:08.372Z,9.28
2018-01-26T11:01:33.768Z,9.28
2018-01-26T11:01:59.278Z,9.28
2018-01-26T11:02:52.718Z,9.26
2018-01-26T11:03:18.172Z,9.26
2018-01-26T11:03:43.654Z,9.26
2018-01-26T11:04:09.153Z,9.26
2018-01-26T11:04:34.657Z,9.26
2018-01-26T11:05:00.111Z,9.25
2018-01-26T11:05:25.665Z,9.23
2018-01-26T11:05:51.119Z,9.31
2018-01-26T11:06:44.589Z,9.31
2018-01-26T11:07:10.053Z,9.28
2018-01-26T11:07:35.547Z,9.32
2018-01-26T11:08:01.057Z,9.29
2018-01-26T11:08:26.558Z,9.37
2018-01-26T11:08:52.057Z,9.29
2018-01-26T11:09:17.496Z,9.32
2018-01-26T11:09:42.997Z,9.28
2018-01-26T11:10:08.515Z,9.26
2018-01-26T11:10:33.987Z,9.34